sensor_id;sensor_type;location;lat;lon;timestamp;pressure;altitude;pressure_sealevel;temperature;humidity
15272;BME280;7737;51.578;7.268;2023-07-09T00:00:11;101195.81;;;20.89;100.00
15272;BME280;7737;51.578;7.268;2023-07-09T00:02:40;101187.81;;;20.87;100.00
15272;BME280;7737;51.578;7.268;2023-07-09T00:05:11;101190.28;;;20.90;100.00
15272;BME280;7737;51.578;7.268;2023-07-09T00:07:37;101186.16;;;20.75;100.00
15272;BME280;7737;51.578;7.268;2023-07-09T00:10:09;101188.84;;;20.86;100.00
15272;BME280;7737;51.578;7.268;2023-07-09T00:12:39;101189.56;;;20.88;100.00
15272;BME280;7737;51.578;7.268;2023-07-09T00:15:07;101190.72;;;20.95;100.00
15272;BME280;7737;51.578;7.268;2023-07-09T00:17:35;101179.91;;;20.95;100.00
15272;BME280;7737;51.578;7.268;2023-07-09T00:20:06;101188.13;;;20.73;100.00
15272;BME280;7737;51.578;7.268;2023-07-09T00:22:36;101187.94;;;20.65;100.00
15272;BME280;7737;51.578;7.268;2023-07-09T00:25:04;101187.44;;;20.60;100.00
15272;BME280;7737;51.578;7.268;2023-07-09T00:27:31;101183.97;;;20.37;100.00
15272;BME280;7737;51.578;7.268;2023-07-09T00:29:58;101184.91;;;20.47;100.00
15272;BME280;7737;51.578;7.268;2023-07-09T00:32:24;101186.06;;;20.34;100.00
15272;BME280;7737;51.578;7.268;2023-07-09T00:34:52;101183.41;;;20.54;100.00
15272;BME280;7737;51.578;7.268;2023-07-09T00:37:24;101183.56;;;20.42;100.00
15272;BME280;7737;51.578;7.268;2023-07-09T00:39:51;101185.06;;;20.46;100.00
15272;BME280;7737;51.578;7.268;2023-07-09T00:42:19;101184.44;;;20.42;100.00
15272;BME280;7737;51.578;7.268;2023-07-09T00:44:49;101182.84;;;20.40;100.00
15272;BME280;7737;51.578;7.268;2023-07-09T00:47:31;101176.03;;;20.25;100.00
15272;BME280;7737;51.578;7.268;2023-07-09T00:50:11;101177.94;;;20.45;100.00
15272;BME280;7737;51.578;7.268;2023-07-09T00:52:48;101175.94;;;20.47;100.00
15272;BME280;7737;51.578;7.268;2023-07-09T00:55:19;101179.44;;;20.38;100.00
15272;BME280;7737;51.578;7.268;2023-07-09T00:57:49;101179.69;;;20.35;100.00
15272;BME280;7737;51.578;7.268;2023-07-09T01:00:23;101178.72;;;20.14;100.00
15272;BME280;7737;51.578;7.268;2023-07-09T01:02:53;101184.34;;;20.22;100.00
15272;BME280;7737;51.578;7.268;2023-07-09T01:05:19;101182.16;;;20.04;100.00
15272;BME280;7737;51.578;7.268;2023-07-09T01:07:50;101182.38;;;20.13;100.00
15272;BME280;7737;51.578;7.268;2023-07-09T01:10:18;101176.50;;;20.08;100.00
15272;BME280;7737;51.578;7.268;2023-07-09T01:12:46;101177.91;;;19.69;100.00
15272;BME280;7737;51.578;7.268;2023-07-09T01:15:15;101174.81;;;19.73;100.00
15272;BME280;7737;51.578;7.268;2023-07-09T01:17:41;101185.63;;;19.73;100.00
15272;BME280;7737;51.578;7.268;2023-07-09T01:20:16;101186.09;;;19.78;100.00
15272;BME280;7737;51.578;7.268;2023-07-09T01:22:48;101191.03;;;19.95;100.00
15272;BME280;7737;51.578;7.268;2023-07-09T01:25:15;101190.53;;;19.90;100.00
15272;BME280;7737;51.578;7.268;2023-07-09T01:27:45;101194.44;;;19.86;100.00
15272;BME280;7737;51.578;7.268;2023-07-09T01:30:15;101186.34;;;19.86;100.00
15272;BME280;7737;51.578;7.268;2023-07-09T01:32:42;101181.47;;;19.58;100.00
15272;BME280;7737;51.578;7.268;2023-07-09T01:35:12;101185.75;;;19.72;100.00
15272;BME280;7737;51.578;7.268;2023-07-09T01:37:41;101194.44;;;19.86;100.00
15272;BME280;7737;51.578;7.268;2023-07-09T01:40:11;101184.66;;;19.74;100.00
15272;BME280;7737;51.578;7.268;2023-07-09T01:42:38;101181.69;;;19.44;100.00
15272;BME280;7737;51.578;7.268;2023-07-09T01:45:06;101188.81;;;19.45;100.00
15272;BME280;7737;51.578;7.268;2023-07-09T01:47:35;101187.34;;;19.63;100.00
15272;BME280;7737;51.578;7.268;2023-07-09T01:50:02;101183.53;;;19.55;100.00
15272;BME280;7737;51.578;7.268;2023-07-09T01:52:29;101187.34;;;19.63;100.00
15272;BME280;7737;51.578;7.268;2023-07-09T01:54:57;101191.25;;;19.59;100.00
15272;BME280;7737;51.578;7.268;2023-07-09T01:57:27;101197.41;;;19.50;100.00
15272;BME280;7737;51.578;7.268;2023-07-09T01:59:59;101198.56;;;19.35;100.00
15272;BME280;7737;51.578;7.268;2023-07-09T02:02:26;101188.25;;;19.29;100.00
15272;BME280;7737;51.578;7.268;2023-07-09T02:04:54;101194.63;;;19.28;100.00
15272;BME280;7737;51.578;7.268;2023-07-09T02:07:23;101187.03;;;19.33;100.00
15272;BME280;7737;51.578;7.268;2023-07-09T02:09:50;101190.00;;;19.30;100.00
15272;BME280;7737;51.578;7.268;2023-07-09T02:12:17;101193.03;;;19.36;100.00
15272;BME280;7737;51.578;7.268;2023-07-09T02:14:45;101196.22;;;19.30;100.00
15272;BME280;7737;51.578;7.268;2023-07-09T02:17:13;101194.63;;;19.28;100.00
15272;BME280;7737;51.578;7.268;2023-07-09T02:19:40;101193.75;;;19.16;100.00
15272;BME280;7737;51.578;7.268;2023-07-09T02:22:07;101192.16;;;19.25;100.00
15272;BME280;7737;51.578;7.268;2023-07-09T02:24:35;101197.50;;;19.37;100.00
15272;BME280;7737;51.578;7.268;2023-07-09T02:27:04;101194.19;;;19.45;100.00
15272;BME280;7737;51.578;7.268;2023-07-09T02:29:32;101196.03;;;19.44;100.00
15272;BME280;7737;51.578;7.268;2023-07-09T02:32:00;101198.09;;;19.41;100.00
15272;BME280;7737;51.578;7.268;2023-07-09T02:34:28;101200.88;;;19.28;100.00
15272;BME280;7737;51.578;7.268;2023-07-09T02:36:57;101198.81;;;19.32;100.00
15272;BME280;7737;51.578;7.268;2023-07-09T02:39:24;101202.19;;;19.12;100.00
15272;BME280;7737;51.578;7.268;2023-07-09T02:41:51;101203.88;;;19.02;100.00
15272;BME280;7737;51.578;7.268;2023-07-09T02:44:18;101210.50;;;18.98;100.00
15272;BME280;7737;51.578;7.268;2023-07-09T02:46:45;101213.59;;;18.80;100.00
15272;BME280;7737;51.578;7.268;2023-07-09T02:49:13;101207.03;;;18.96;100.00
15272;BME280;7737;51.578;7.268;2023-07-09T02:51:40;101221.94;;;18.89;100.00
15272;BME280;7737;51.578;7.268;2023-07-09T02:54:07;101231.03;;;18.99;100.00
15272;BME280;7737;51.578;7.268;2023-07-09T02:56:34;101214.56;;;19.03;100.00
15272;BME280;7737;51.578;7.268;2023-07-09T02:59:00;101218.13;;;19.15;100.00
15272;BME280;7737;51.578;7.268;2023-07-09T03:01:27;101231.09;;;19.10;100.00
15272;BME280;7737;51.578;7.268;2023-07-09T03:03:54;101226.28;;;19.02;100.00
15272;BME280;7737;51.578;7.268;2023-07-09T03:06:23;101224.59;;;19.12;100.00
15272;BME280;7737;51.578;7.268;2023-07-09T03:08:50;101227.75;;;19.06;100.00
15272;BME280;7737;51.578;7.268;2023-07-09T03:11:18;101232.66;;;19.01;100.00
15272;BME280;7737;51.578;7.268;2023-07-09T03:13:45;101235.06;;;18.93;100.00
15272;BME280;7737;51.578;7.268;2023-07-09T03:16:12;101233.88;;;18.97;100.00
15272;BME280;7737;51.578;7.268;2023-07-09T03:18:40;101233.22;;;18.94;100.00
15272;BME280;7737;51.578;7.268;2023-07-09T03:21:06;101237.88;;;18.92;100.00
15272;BME280;7737;51.578;7.268;2023-07-09T03:23:34;101232.22;;;18.83;100.00
15272;BME280;7737;51.578;7.268;2023-07-09T03:26:01;101237.75;;;18.82;100.00
15272;BME280;7737;51.578;7.268;2023-07-09T03:28:29;101249.25;;;18.84;100.00
15272;BME280;7737;51.578;7.268;2023-07-09T03:30:56;101243.50;;;18.89;100.00
15272;BME280;7737;51.578;7.268;2023-07-09T03:33:24;101250.72;;;18.88;100.00
15272;BME280;7737;51.578;7.268;2023-07-09T03:35:50;101247.06;;;18.89;100.00
15272;BME280;7737;51.578;7.268;2023-07-09T03:38:17;101249.22;;;19.08;100.00
15272;BME280;7737;51.578;7.268;2023-07-09T03:40:49;101254.84;;;19.05;100.00
15272;BME280;7737;51.578;7.268;2023-07-09T03:43:15;101251.56;;;19.12;100.00
15272;BME280;7737;51.578;7.268;2023-07-09T03:45:43;101249.59;;;19.03;100.00
15272;BME280;7737;51.578;7.268;2023-07-09T03:48:10;101259.97;;;18.97;100.00
15272;BME280;7737;51.578;7.268;2023-07-09T03:50:37;101253.59;;;18.98;100.00
15272;BME280;7737;51.578;7.268;2023-07-09T03:53:04;101253.59;;;18.98;100.00
15272;BME280;7737;51.578;7.268;2023-07-09T03:55:30;101255.16;;;18.89;100.00
15272;BME280;7737;51.578;7.268;2023-07-09T03:57:58;101260.38;;;18.79;100.00
15272;BME280;7737;51.578;7.268;2023-07-09T04:00:25;101258.66;;;18.78;100.00
15272;BME280;7737;51.578;7.268;2023-07-09T04:02:51;101266.22;;;18.73;100.00
15272;BME280;7737;51.578;7.268;2023-07-09T04:05:18;101263.88;;;18.69;100.00
15272;BME280;7737;51.578;7.268;2023-07-09T04:07:45;101253.19;;;18.67;100.00
15272;BME280;7737;51.578;7.268;2023-07-09T04:10:13;101264.50;;;18.72;100.00
15272;BME280;7737;51.578;7.268;2023-07-09T04:12:40;101262.00;;;18.82;100.00
15272;BME280;7737;51.578;7.268;2023-07-09T04:15:10;101263.59;;;18.84;100.00
15272;BME280;7737;51.578;7.268;2023-07-09T04:17:38;101257.72;;;18.91;100.00
15272;BME280;7737;51.578;7.268;2023-07-09T04:20:05;101256.16;;;18.99;100.00
15272;BME280;7737;51.578;7.268;2023-07-09T04:22:32;101263.28;;;19.00;100.00
15272;BME280;7737;51.578;7.268;2023-07-09T04:25:00;101256.53;;;18.95;100.00
15272;BME280;7737;51.578;7.268;2023-07-09T04:27:27;101255.94;;;19.02;100.00
15272;BME280;7737;51.578;7.268;2023-07-09T04:29:54;101265.00;;;19.01;100.00
15272;BME280;7737;51.578;7.268;2023-07-09T04:32:22;101260.75;;;19.10;100.00
15272;BME280;7737;51.578;7.268;2023-07-09T04:34:49;101259.81;;;19.22;100.00
15272;BME280;7737;51.578;7.268;2023-07-09T04:37:16;101261.66;;;19.21;100.00
15272;BME280;7737;51.578;7.268;2023-07-09T04:39:43;101259.69;;;19.23;100.00
15272;BME280;7737;51.578;7.268;2023-07-09T04:42:11;101265.94;;;19.24;100.00
15272;BME280;7737;51.578;7.268;2023-07-09T04:44:38;101259.56;;;19.25;100.00
15272;BME280;7737;51.578;7.268;2023-07-09T04:47:05;101269.16;;;19.29;100.00
15272;BME280;7737;51.578;7.268;2023-07-09T04:49:33;101256.59;;;19.40;100.00
15272;BME280;7737;51.578;7.268;2023-07-09T04:52:00;101258.53;;;19.38;100.00
15272;BME280;7737;51.578;7.268;2023-07-09T04:54:27;101262.13;;;19.50;100.00
15272;BME280;7737;51.578;7.268;2023-07-09T04:56:54;101265.31;;;19.55;100.00
15272;BME280;7737;51.578;7.268;2023-07-09T04:59:21;101264.88;;;19.72;100.00
15272;BME280;7737;51.578;7.268;2023-07-09T05:01:48;101267.28;;;19.75;100.00
15272;BME280;7737;51.578;7.268;2023-07-09T05:04:15;101267.88;;;19.57;100.00
15272;BME280;7737;51.578;7.268;2023-07-09T05:06:43;101267.06;;;19.78;100.00
15272;BME280;7737;51.578;7.268;2023-07-09T05:09:09;101263.16;;;19.93;100.00
15272;BME280;7737;51.578;7.268;2023-07-09T05:11:36;101263.28;;;20.14;100.00
15272;BME280;7737;51.578;7.268;2023-07-09T05:14:03;101264.50;;;20.21;100.00
15272;BME280;7737;51.578;7.268;2023-07-09T05:16:30;101258.97;;;20.34;100.00
15272;BME280;7737;51.578;7.268;2023-07-09T05:18:56;101257.28;;;20.33;100.00
15272;BME280;7737;51.578;7.268;2023-07-09T05:21:23;101258.22;;;20.43;100.00
15272;BME280;7737;51.578;7.268;2023-07-09T05:23:50;101259.03;;;20.65;100.00
15272;BME280;7737;51.578;7.268;2023-07-09T05:26:17;101260.59;;;20.79;100.00
15272;BME280;7737;51.578;7.268;2023-07-09T05:28:43;101257.84;;;20.90;100.00
15272;BME280;7737;51.578;7.268;2023-07-09T05:31:10;101258.97;;;21.19;100.00
15272;BME280;7737;51.578;7.268;2023-07-09T05:33:37;101260.81;;;21.40;100.00
15272;BME280;7737;51.578;7.268;2023-07-09T05:36:04;101259.22;;;21.58;100.00
15272;BME280;7737;51.578;7.268;2023-07-09T05:38:32;101263.91;;;21.76;100.00
15272;BME280;7737;51.578;7.268;2023-07-09T05:41:02;101256.78;;;21.96;100.00
15272;BME280;7737;51.578;7.268;2023-07-09T05:43:29;101257.91;;;21.94;100.00
15272;BME280;7737;51.578;7.268;2023-07-09T05:45:56;101255.34;;;21.92;100.00
15272;BME280;7737;51.578;7.268;2023-07-09T05:48:22;101255.22;;;22.03;100.00
15272;BME280;7737;51.578;7.268;2023-07-09T05:50:52;101250.47;;;22.26;100.00
15272;BME280;7737;51.578;7.268;2023-07-09T05:53:19;101244.97;;;22.47;100.00
15272;BME280;7737;51.578;7.268;2023-07-09T05:55:46;101252.28;;;22.56;100.00
15272;BME280;7737;51.578;7.268;2023-07-09T05:58:14;101250.63;;;22.74;100.00
15272;BME280;7737;51.578;7.268;2023-07-09T06:00:40;101249.03;;;22.81;100.00
15272;BME280;7737;51.578;7.268;2023-07-09T06:03:07;101246.03;;;22.93;100.00
15272;BME280;7737;51.578;7.268;2023-07-09T06:05:34;101238.78;;;23.13;100.00
15272;BME280;7737;51.578;7.268;2023-07-09T06:08:01;101243.78;;;23.37;100.00
15272;BME280;7737;51.578;7.268;2023-07-09T06:10:27;101230.19;;;23.46;100.00
15272;BME280;7737;51.578;7.268;2023-07-09T06:12:55;101235.03;;;23.52;100.00
15272;BME280;7737;51.578;7.268;2023-07-09T06:15:24;101230.81;;;23.77;100.00
15272;BME280;7737;51.578;7.268;2023-07-09T06:17:51;101229.63;;;23.89;100.00
15272;BME280;7737;51.578;7.268;2023-07-09T06:20:17;101216.25;;;24.05;100.00
15272;BME280;7737;51.578;7.268;2023-07-09T06:22:44;101222.16;;;24.01;100.00
15272;BME280;7737;51.578;7.268;2023-07-09T06:25:10;101215.63;;;24.21;100.00
15272;BME280;7737;51.578;7.268;2023-07-09T06:27:37;101207.28;;;24.50;100.00
15272;BME280;7737;51.578;7.268;2023-07-09T06:30:04;101200.47;;;24.46;100.00
15272;BME280;7737;51.578;7.268;2023-07-09T06:32:32;101203.13;;;24.55;100.00
15272;BME280;7737;51.578;7.268;2023-07-09T06:34:58;101195.22;;;24.79;100.00
15272;BME280;7737;51.578;7.268;2023-07-09T06:37:25;101190.06;;;24.76;100.00
15272;BME280;7737;51.578;7.268;2023-07-09T06:39:51;101201.03;;;24.67;100.00
15272;BME280;7737;51.578;7.268;2023-07-09T06:42:17;101187.47;;;24.85;100.00
15272;BME280;7737;51.578;7.268;2023-07-09T06:44:44;101195.31;;;24.88;100.00
15272;BME280;7737;51.578;7.268;2023-07-09T06:47:10;101186.97;;;25.07;100.00
15272;BME280;7737;51.578;7.268;2023-07-09T06:49:38;101191.53;;;25.24;100.00
15272;BME280;7737;51.578;7.268;2023-07-09T06:52:06;101188.38;;;25.36;100.00
15272;BME280;7737;51.578;7.268;2023-07-09T06:54:32;101190.16;;;25.46;100.00
15272;BME280;7737;51.578;7.268;2023-07-09T06:56:59;101186.97;;;25.50;100.00
15272;BME280;7737;51.578;7.268;2023-07-09T06:59:25;101178.91;;;25.66;100.00
15272;BME280;7737;51.578;7.268;2023-07-09T07:01:52;101184.59;;;25.81;100.00
15272;BME280;7737;51.578;7.268;2023-07-09T07:04:18;101178.69;;;25.93;100.00
15272;BME280;7737;51.578;7.268;2023-07-09T07:06:46;101176.97;;;25.92;100.00
15272;BME280;7737;51.578;7.268;2023-07-09T07:09:13;101185.53;;;26.06;100.00
15272;BME280;7737;51.578;7.268;2023-07-09T07:11:39;101195.44;;;26.07;100.00
15272;BME280;7737;51.578;7.268;2023-07-09T07:14:06;101191.34;;;26.02;100.00
15272;BME280;7737;51.578;7.268;2023-07-09T07:16:32;101175.63;;;26.30;100.00
15272;BME280;7737;51.578;7.268;2023-07-09T07:18:59;101180.59;;;26.43;100.00
15272;BME280;7737;51.578;7.268;2023-07-09T07:21:25;101167.31;;;26.56;100.00
15272;BME280;7737;51.578;7.268;2023-07-09T07:23:53;101171.91;;;26.63;100.00
15272;BME280;7737;51.578;7.268;2023-07-09T07:26:20;101169.09;;;26.81;100.00
15272;BME280;7737;51.578;7.268;2023-07-09T07:28:46;101168.91;;;26.83;100.00
15272;BME280;7737;51.578;7.268;2023-07-09T07:31:13;101160.22;;;26.95;100.00
15272;BME280;7737;51.578;7.268;2023-07-09T07:33:42;101161.59;;;26.99;100.00
15272;BME280;7737;51.578;7.268;2023-07-09T07:36:09;101141.81;;;26.97;100.00
15272;BME280;7737;51.578;7.268;2023-07-09T07:38:36;101146.06;;;27.08;100.00
15272;BME280;7737;51.578;7.268;2023-07-09T07:41:04;101144.84;;;27.27;100.00
15272;BME280;7737;51.578;7.268;2023-07-09T07:43:30;101151.13;;;27.35;100.00
15272;BME280;7737;51.578;7.268;2023-07-09T07:45:57;101149.09;;;27.37;100.00
15272;BME280;7737;51.578;7.268;2023-07-09T07:48:23;101158.13;;;27.46;100.00
15272;BME280;7737;51.578;7.268;2023-07-09T07:50:50;101149.25;;;27.52;100.00
15272;BME280;7737;51.578;7.268;2023-07-09T07:53:17;101157.69;;;27.81;100.00
15272;BME280;7737;51.578;7.268;2023-07-09T07:55:43;101146.09;;;27.79;100.00
15272;BME280;7737;51.578;7.268;2023-07-09T07:58:13;101141.91;;;27.91;100.00
15272;BME280;7737;51.578;7.268;2023-07-09T08:00:39;101128.94;;;27.93;100.00
15272;BME280;7737;51.578;7.268;2023-07-09T08:03:06;101132.50;;;28.02;100.00
15272;BME280;7737;51.578;7.268;2023-07-09T08:05:33;101145.66;;;28.06;100.00
15272;BME280;7737;51.578;7.268;2023-07-09T08:07:59;101137.13;;;28.32;100.00
15272;BME280;7737;51.578;7.268;2023-07-09T08:10:26;101126.59;;;28.44;99.34
15272;BME280;7737;51.578;7.268;2023-07-09T08:12:52;101124.81;;;28.59;98.61
15272;BME280;7737;51.578;7.268;2023-07-09T08:15:23;101117.63;;;28.58;98.57
15272;BME280;7737;51.578;7.268;2023-07-09T08:17:49;101117.44;;;28.67;97.92
15272;BME280;7737;51.578;7.268;2023-07-09T08:20:16;101120.94;;;28.76;99.48
15272;BME280;7737;51.578;7.268;2023-07-09T08:22:43;101095.69;;;29.03;93.14
15272;BME280;7737;51.578;7.268;2023-07-09T08:25:09;101074.06;;;28.93;89.04
15272;BME280;7737;51.578;7.268;2023-07-09T08:27:36;101072.38;;;29.07;87.40
15272;BME280;7737;51.578;7.268;2023-07-09T08:30:02;101088.28;;;29.26;89.33
15272;BME280;7737;51.578;7.268;2023-07-09T08:32:30;101082.06;;;29.32;87.54
15272;BME280;7737;51.578;7.268;2023-07-09T08:34:57;101066.09;;;29.50;84.46
15272;BME280;7737;51.578;7.268;2023-07-09T08:37:23;101075.34;;;29.49;86.37
15272;BME280;7737;51.578;7.268;2023-07-09T08:39:50;101066.84;;;29.44;84.31
15272;BME280;7737;51.578;7.268;2023-07-09T08:42:22;101047.13;;;29.49;79.80
15272;BME280;7737;51.578;7.268;2023-07-09T08:45:07;101065.31;;;29.86;82.40
15272;BME280;7737;51.578;7.268;2023-07-09T08:47:45;101041.19;;;29.81;79.03
15272;BME280;7737;51.578;7.268;2023-07-09T08:50:15;101034.09;;;29.87;78.51
15272;BME280;7737;51.578;7.268;2023-07-09T08:52:44;101018.09;;;30.05;76.25
15272;BME280;7737;51.578;7.268;2023-07-09T08:55:14;101023.28;;;30.00;76.62
15272;BME280;7737;51.578;7.268;2023-07-09T08:57:43;101033.56;;;30.12;76.69
15272;BME280;7737;51.578;7.268;2023-07-09T09:00:15;101012.38;;;30.06;73.86
15272;BME280;7737;51.578;7.268;2023-07-09T09:02:49;100998.47;;;30.08;72.29
15272;BME280;7737;51.578;7.268;2023-07-09T09:05:19;100996.34;;;30.46;71.32
15272;BME280;7737;51.578;7.268;2023-07-09T09:07:50;100991.16;;;30.57;71.17
15272;BME280;7737;51.578;7.268;2023-07-09T09:10:23;101005.44;;;30.32;72.13
15272;BME280;7737;51.578;7.268;2023-07-09T09:13:03;101001.34;;;30.42;71.05
15272;BME280;7737;51.578;7.268;2023-07-09T09:15:32;100994.22;;;30.48;70.28
15272;BME280;7737;51.578;7.268;2023-07-09T09:18:14;100977.63;;;30.84;68.99
15272;BME280;7737;51.578;7.268;2023-07-09T09:20:45;100976.66;;;30.91;68.58
15272;BME280;7737;51.578;7.268;2023-07-09T09:23:14;100992.00;;;30.86;69.85
15272;BME280;7737;51.578;7.268;2023-07-09T09:25:44;100988.84;;;30.89;69.96
15272;BME280;7737;51.578;7.268;2023-07-09T09:28:13;100969.78;;;30.81;67.52
15272;BME280;7737;51.578;7.268;2023-07-09T09:30:40;100945.47;;;31.12;65.40
15272;BME280;7737;51.578;7.268;2023-07-09T09:33:09;100936.44;;;31.18;64.03
15272;BME280;7737;51.578;7.268;2023-07-09T09:35:38;100945.81;;;31.43;64.33
15272;BME280;7737;51.578;7.268;2023-07-09T09:38:10;100927.19;;;31.32;61.69
15272;BME280;7737;51.578;7.268;2023-07-09T09:40:38;100926.94;;;31.74;60.94
15272;BME280;7737;51.578;7.268;2023-07-09T09:43:11;100929.69;;;31.94;61.59
15272;BME280;7737;51.578;7.268;2023-07-09T09:45:39;100922.22;;;31.62;60.27
15272;BME280;7737;51.578;7.268;2023-07-09T09:48:14;100896.88;;;31.66;58.78
15272;BME280;7737;51.578;7.268;2023-07-09T09:50:42;100879.03;;;31.43;56.08
15272;BME280;7737;51.578;7.268;2023-07-09T09:53:18;100918.25;;;31.84;59.33
15272;BME280;7737;51.578;7.268;2023-07-09T09:55:45;100920.44;;;32.08;59.87
15272;BME280;7737;51.578;7.268;2023-07-09T09:58:14;100913.03;;;32.28;57.86
15272;BME280;7737;51.578;7.268;2023-07-09T10:00:47;100900.09;;;32.42;57.51
15272;BME280;7737;51.578;7.268;2023-07-09T10:03:15;100890.16;;;32.34;56.35
15272;BME280;7737;51.578;7.268;2023-07-09T10:05:44;100896.31;;;32.56;56.25
15272;BME280;7737;51.578;7.268;2023-07-09T10:08:16;100919.56;;;32.80;57.57
15272;BME280;7737;51.578;7.268;2023-07-09T10:10:51;100919.72;;;32.91;57.72
15272;BME280;7737;51.578;7.268;2023-07-09T10:13:24;100899.38;;;33.05;55.89
15272;BME280;7737;51.578;7.268;2023-07-09T10:16:03;100893.28;;;32.77;55.24
15272;BME280;7737;51.578;7.268;2023-07-09T10:18:41;100912.47;;;33.03;56.05
15272;BME280;7737;51.578;7.268;2023-07-09T10:21:14;100910.44;;;33.37;54.97
15272;BME280;7737;51.578;7.268;2023-07-09T10:23:48;100907.00;;;33.86;54.25
15272;BME280;7737;51.578;7.268;2023-07-09T10:26:23;100915.53;;;33.40;53.26
15272;BME280;7737;51.578;7.268;2023-07-09T10:29:03;100889.44;;;34.11;51.55
15272;BME280;7737;51.578;7.268;2023-07-09T10:31:40;100898.41;;;33.69;52.51
15272;BME280;7737;51.578;7.268;2023-07-09T10:34:19;100893.19;;;34.42;52.82
15272;BME280;7737;51.578;7.268;2023-07-09T10:37:04;100903.63;;;33.84;53.11
15272;BME280;7737;51.578;7.268;2023-07-09T10:39:36;100913.88;;;34.08;54.53
15272;BME280;7737;51.578;7.268;2023-07-09T10:42:09;100872.06;;;34.29;50.35
15272;BME280;7737;51.578;7.268;2023-07-09T10:44:41;100851.13;;;34.40;48.74
15272;BME280;7737;51.578;7.268;2023-07-09T10:47:11;100857.06;;;35.34;48.91
15272;BME280;7737;51.578;7.268;2023-07-09T10:49:42;100858.38;;;34.95;48.87
15272;BME280;7737;51.578;7.268;2023-07-09T10:52:16;100855.47;;;34.90;49.65
15272;BME280;7737;51.578;7.268;2023-07-09T10:54:53;100825.19;;;35.31;46.94
15272;BME280;7737;51.578;7.268;2023-07-09T10:57:28;100846.69;;;34.81;47.82
15272;BME280;7737;51.578;7.268;2023-07-09T10:59:56;100863.34;;;35.71;49.09
15272;BME280;7737;51.578;7.268;2023-07-09T11:02:25;100839.22;;;35.18;46.10
15272;BME280;7737;51.578;7.268;2023-07-09T11:04:55;100857.47;;;35.19;47.81
15272;BME280;7737;51.578;7.268;2023-07-09T11:07:27;100838.09;;;35.49;45.80
15272;BME280;7737;51.578;7.268;2023-07-09T11:09:57;100836.16;;;35.68;45.09
15272;BME280;7737;51.578;7.268;2023-07-09T11:12:29;100832.25;;;36.33;44.90
15272;BME280;7737;51.578;7.268;2023-07-09T11:15:01;100794.44;;;36.04;43.10
15272;BME280;7737;51.578;7.268;2023-07-09T11:17:30;100851.69;;;35.69;47.83
15272;BME280;7737;51.578;7.268;2023-07-09T11:20:00;100824.66;;;36.17;44.00
15272;BME280;7737;51.578;7.268;2023-07-09T11:22:36;100823.75;;;36.98;43.99
15272;BME280;7737;51.578;7.268;2023-07-09T11:25:08;100805.22;;;37.15;42.13
15272;BME280;7737;51.578;7.268;2023-07-09T11:27:48;100770.22;;;35.88;40.52
15272;BME280;7737;51.578;7.268;2023-07-09T11:30:19;100773.97;;;35.40;41.53
15272;BME280;7737;51.578;7.268;2023-07-09T11:32:47;100784.31;;;36.33;42.05
15272;BME280;7737;51.578;7.268;2023-07-09T11:35:21;100753.06;;;35.44;40.63
15272;BME280;7737;51.578;7.268;2023-07-09T11:37:48;100775.66;;;36.18;41.98
15272;BME280;7737;51.578;7.268;2023-07-09T11:40:15;100761.16;;;36.62;41.15
15272;BME280;7737;51.578;7.268;2023-07-09T11:42:50;100762.72;;;37.26;41.47
15272;BME280;7737;51.578;7.268;2023-07-09T11:45:20;100727.06;;;36.90;39.34
15272;BME280;7737;51.578;7.268;2023-07-09T11:47:52;100759.00;;;37.20;41.55
15272;BME280;7737;51.578;7.268;2023-07-09T11:50:26;100754.63;;;37.08;41.77
15272;BME280;7737;51.578;7.268;2023-07-09T11:52:55;100736.06;;;37.53;39.54
15272;BME280;7737;51.578;7.268;2023-07-09T11:55:28;100762.03;;;36.28;42.11
15272;BME280;7737;51.578;7.268;2023-07-09T11:57:55;100735.88;;;37.43;40.26
15272;BME280;7737;51.578;7.268;2023-07-09T12:00:22;100731.19;;;37.15;40.87
15272;BME280;7737;51.578;7.268;2023-07-09T12:02:50;100732.00;;;37.44;39.98
15272;BME280;7737;51.578;7.268;2023-07-09T12:05:20;100698.19;;;37.31;38.20
15272;BME280;7737;51.578;7.268;2023-07-09T12:07:48;100732.81;;;36.72;41.05
15272;BME280;7737;51.578;7.268;2023-07-09T12:10:20;100724.28;;;37.46;39.26
15272;BME280;7737;51.578;7.268;2023-07-09T12:12:47;100685.63;;;37.28;37.53
15272;BME280;7737;51.578;7.268;2023-07-09T12:15:18;100687.53;;;38.11;37.21
15272;BME280;7737;51.578;7.268;2023-07-09T12:17:54;100681.06;;;37.50;37.45
15272;BME280;7737;51.578;7.268;2023-07-09T12:20:21;100723.94;;;36.98;40.05
15272;BME280;7737;51.578;7.268;2023-07-09T12:22:49;100749.00;;;37.03;41.27
15272;BME280;7737;51.578;7.268;2023-07-09T12:25:22;100735.69;;;36.48;40.30
15272;BME280;7737;51.578;7.268;2023-07-09T12:27:50;100749.56;;;37.05;41.39
15272;BME280;7737;51.578;7.268;2023-07-09T12:30:17;100725.31;;;37.29;39.79
15272;BME280;7737;51.578;7.268;2023-07-09T12:32:44;100718.13;;;37.44;39.47
15272;BME280;7737;51.578;7.268;2023-07-09T12:35:13;100712.03;;;36.57;39.48
15272;BME280;7737;51.578;7.268;2023-07-09T12:37:41;100719.25;;;36.87;40.08
15272;BME280;7737;51.578;7.268;2023-07-09T12:40:15;100726.13;;;36.56;39.81
15272;BME280;7737;51.578;7.268;2023-07-09T12:42:43;100717.47;;;36.52;39.75
15272;BME280;7737;51.578;7.268;2023-07-09T12:45:15;100746.03;;;36.30;40.99
15272;BME280;7737;51.578;7.268;2023-07-09T12:47:42;100747.44;;;36.44;40.86
15272;BME280;7737;51.578;7.268;2023-07-09T12:50:18;100740.00;;;36.33;41.30
15272;BME280;7737;51.578;7.268;2023-07-09T12:52:46;100790.34;;;35.95;44.35
15272;BME280;7737;51.578;7.268;2023-07-09T12:55:22;100772.28;;;35.81;43.29
15272;BME280;7737;51.578;7.268;2023-07-09T12:57:49;100723.66;;;36.20;40.33
15272;BME280;7737;51.578;7.268;2023-07-09T13:00:16;100719.41;;;35.47;40.73